sensor_id;sensor_type;location;lat;lon;timestamp;pressure;altitude;pressure_sealevel;temperature;humidity
50368;BME280;36281;34.132;-118.018;2022-10-31T00:14:13;99756.75;;;27.68;24.38
50368;BME280;36281;34.132;-118.018;2022-10-31T01:33:50;99793.06;;;24.21;30.88
50368;BME280;36281;34.132;-118.018;2022-10-31T02:50:18;99864.38;;;21.18;37.29
50368;BME280;36281;34.132;-118.018;2022-10-31T02:52:50;99877.06;;;21.12;37.48
50368;BME280;36281;34.132;-118.018;2022-10-31T03:16:49;99883.44;;;20.28;40.00
50368;BME280;36281;34.132;-118.018;2022-10-31T03:19:19;99881.59;;;20.18;40.64
50368;BME280;36281;34.132;-118.018;2022-10-31T03:21:49;99878.69;;;20.09;40.82
50368;BME280;36281;34.132;-118.018;2022-10-31T03:24:20;99880.34;;;20.00;41.25
50368;BME280;36281;34.132;-118.018;2022-10-31T03:26:51;99880.59;;;19.99;41.46
50368;BME280;36281;34.132;-118.018;2022-10-31T03:29:22;99882.25;;;19.95;41.46
50368;BME280;36281;34.132;-118.018;2022-10-31T03:37:11;99882.00;;;19.71;42.58
50368;BME280;36281;34.132;-118.018;2022-10-31T03:39:42;99874.22;;;19.64;42.84
50368;BME280;36281;34.132;-118.018;2022-10-31T03:42:13;99873.94;;;19.55;42.88
50368;BME280;36281;34.132;-118.018;2022-10-31T03:44:42;99866.97;;;19.54;42.90
50368;BME280;36281;34.132;-118.018;2022-10-31T03:47:12;99875.03;;;19.54;43.08
50368;BME280;36281;34.132;-118.018;2022-10-31T03:49:41;99870.19;;;19.56;43.07
50368;BME280;36281;34.132;-118.018;2022-10-31T03:52:12;99876.09;;;19.53;43.24
50368;BME280;36281;34.132;-118.018;2022-10-31T05:16:03;99882.50;;;17.71;47.04
50368;BME280;36281;34.132;-118.018;2022-10-31T05:18:31;99891.03;;;17.63;46.94
50368;BME280;36281;34.132;-118.018;2022-10-31T05:21:00;99894.69;;;17.51;47.25
50368;BME280;36281;34.132;-118.018;2022-10-31T05:23:28;99897.59;;;17.50;47.45
50368;BME280;36281;34.132;-118.018;2022-10-31T05:25:56;99887.94;;;17.44;47.32
50368;BME280;36281;34.132;-118.018;2022-10-31T05:28:24;99892.94;;;17.35;47.44
50368;BME280;36281;34.132;-118.018;2022-10-31T05:30:52;99894.53;;;17.31;47.77
50368;BME280;36281;34.132;-118.018;2022-10-31T05:33:22;99891.81;;;17.26;48.03
50368;BME280;36281;34.132;-118.018;2022-10-31T05:35:50;99896.56;;;17.19;48.05
50368;BME280;36281;34.132;-118.018;2022-10-31T05:38:18;99899.13;;;17.09;47.97
50368;BME280;36281;34.132;-118.018;2022-10-31T05:40:47;99900.13;;;16.97;48.18
50368;BME280;36281;34.132;-118.018;2022-10-31T05:43:15;99902.22;;;16.95;48.20
50368;BME280;36281;34.132;-118.018;2022-10-31T05:45:43;99907.56;;;16.95;48.13
50368;BME280;36281;34.132;-118.018;2022-10-31T05:48:11;99903.75;;;16.86;48.43
50368;BME280;36281;34.132;-118.018;2022-10-31T05:50:41;99903.19;;;16.84;48.51
50368;BME280;36281;34.132;-118.018;2022-10-31T05:53:09;99906.13;;;16.83;48.25
50368;BME280;36281;34.132;-118.018;2022-10-31T05:55:38;99911.66;;;16.76;49.12
50368;BME280;36281;34.132;-118.018;2022-10-31T05:58:08;99911.91;;;16.74;49.25
50368;BME280;36281;34.132;-118.018;2022-10-31T06:00:36;99912.56;;;16.65;50.10
50368;BME280;36281;34.132;-118.018;2022-10-31T06:03:05;99904.00;;;16.63;50.16
50368;BME280;36281;34.132;-118.018;2022-10-31T06:05:38;99910.94;;;16.64;50.39
50368;BME280;36281;34.132;-118.018;2022-10-31T06:08:08;99907.91;;;16.55;50.21
50368;BME280;36281;34.132;-118.018;2022-10-31T06:10:36;99915.38;;;16.53;50.16
50368;BME280;36281;34.132;-118.018;2022-10-31T06:13:04;99912.38;;;16.49;50.12
50368;BME280;36281;34.132;-118.018;2022-10-31T06:15:34;99910.16;;;16.41;50.46
50368;BME280;36281;34.132;-118.018;2022-10-31T06:18:02;99915.44;;;16.36;50.58
50368;BME280;36281;34.132;-118.018;2022-10-31T06:20:31;99912.72;;;16.31;50.55
50368;BME280;36281;34.132;-118.018;2022-10-31T06:23:00;99910.53;;;16.28;50.30
50368;BME280;36281;34.132;-118.018;2022-10-31T06:25:30;99916.63;;;16.23;51.02
50368;BME280;36281;34.132;-118.018;2022-10-31T06:27:58;99911.19;;;16.18;51.11
50368;BME280;36281;34.132;-118.018;2022-10-31T06:30:26;99905.78;;;16.13;51.29
50368;BME280;36281;34.132;-118.018;2022-10-31T06:32:55;99915.94;;;16.11;51.27
50368;BME280;36281;34.132;-118.018;2022-10-31T06:35:29;99915.34;;;16.09;50.83
50368;BME280;36281;34.132;-118.018;2022-10-31T06:37:57;99921.75;;;16.08;50.76
50368;BME280;36281;34.132;-118.018;2022-10-31T06:40:25;99917.47;;;16.07;50.99
50368;BME280;36281;34.132;-118.018;2022-10-31T06:42:59;99916.34;;;16.03;51.07
50368;BME280;36281;34.132;-118.018;2022-10-31T06:45:27;99916.03;;;15.99;51.14
50368;BME280;36281;34.132;-118.018;2022-10-31T06:47:56;99917.88;;;15.99;50.49
50368;BME280;36281;34.132;-118.018;2022-10-31T06:50:44;99921.53;;;15.93;50.62
50368;BME280;36281;34.132;-118.018;2022-10-31T06:53:12;99918.06;;;15.92;50.90
50368;BME280;36281;34.132;-118.018;2022-10-31T06:55:42;99917.25;;;15.92;51.29
50368;BME280;36281;34.132;-118.018;2022-10-31T06:58:12;99921.69;;;15.86;51.45
50368;BME280;36281;34.132;-118.018;2022-10-31T07:00:40;99916.84;;;15.83;51.65
50368;BME280;36281;34.132;-118.018;2022-10-31T07:03:10;99920.59;;;15.82;51.40
50368;BME280;36281;34.132;-118.018;2022-10-31T07:05:38;99918.94;;;15.81;50.76
50368;BME280;36281;34.132;-118.018;2022-10-31T07:08:07;99919.94;;;15.75;50.58
50368;BME280;36281;34.132;-118.018;2022-10-31T07:10:36;99927.66;;;15.71;51.11
50368;BME280;36281;34.132;-118.018;2022-10-31T07:13:06;99916.63;;;15.68;51.20
50368;BME280;36281;34.132;-118.018;2022-10-31T07:15:38;99924.38;;;15.69;51.60
50368;BME280;36281;34.132;-118.018;2022-10-31T07:18:07;99924.13;;;15.71;51.91
50368;BME280;36281;34.132;-118.018;2022-10-31T07:20:36;99924.63;;;15.68;52.26
50368;BME280;36281;34.132;-118.018;2022-10-31T07:23:04;99932.53;;;15.63;52.19
50368;BME280;36281;34.132;-118.018;2022-10-31T07:25:33;99924.47;;;15.58;52.73
50368;BME280;36281;34.132;-118.018;2022-10-31T07:28:01;99920.41;;;15.55;52.47
50368;BME280;36281;34.132;-118.018;2022-10-31T07:30:30;99932.84;;;15.49;52.71
50368;BME280;36281;34.132;-118.018;2022-10-31T07:33:00;99926.88;;;15.42;53.11
50368;BME280;36281;34.132;-118.018;2022-10-31T07:35:29;99928.41;;;15.38;53.35
50368;BME280;36281;34.132;-118.018;2022-10-31T07:37:57;99910.19;;;15.18;53.16
50368;BME280;36281;34.132;-118.018;2022-10-31T07:40:25;99927.66;;;15.26;53.52
50368;BME280;36281;34.132;-118.018;2022-10-31T07:42:54;99931.03;;;15.21;53.46
50368;BME280;36281;34.132;-118.018;2022-10-31T07:45:22;99927.16;;;15.12;53.45
50368;BME280;36281;34.132;-118.018;2022-10-31T07:47:51;99921.97;;;15.06;53.80
50368;BME280;36281;34.132;-118.018;2022-10-31T07:50:23;99934.41;;;15.00;54.19
50368;BME280;36281;34.132;-118.018;2022-10-31T07:52:58;99933.50;;;14.94;54.57
50368;BME280;36281;34.132;-118.018;2022-10-31T07:55:27;99929.47;;;14.92;54.41
50368;BME280;36281;34.132;-118.018;2022-10-31T07:57:56;99925.03;;;14.97;53.50
50368;BME280;36281;34.132;-118.018;2022-10-31T08:00:24;99926.06;;;14.96;53.87
50368;BME280;36281;34.132;-118.018;2022-10-31T08:02:56;99919.03;;;14.90;53.79
50368;BME280;36281;34.132;-118.018;2022-10-31T08:05:27;99920.41;;;14.93;53.62
50368;BME280;36281;34.132;-118.018;2022-10-31T08:07:56;99908.34;;;14.90;53.67
50368;BME280;36281;34.132;-118.018;2022-10-31T08:10:25;99906.19;;;14.87;53.73
50368;BME280;36281;34.132;-118.018;2022-10-31T08:12:56;99914.97;;;14.88;53.29
50368;BME280;36281;34.132;-118.018;2022-10-31T08:15:25;99909.16;;;14.91;52.80
50368;BME280;36281;34.132;-118.018;2022-10-31T08:17:53;99907.19;;;14.86;52.50
50368;BME280;36281;34.132;-118.018;2022-10-31T08:20:21;99909.88;;;14.86;52.08
50368;BME280;36281;34.132;-118.018;2022-10-31T08:22:55;99908.31;;;14.73;52.48
50368;BME280;36281;34.132;-118.018;2022-10-31T08:25:24;99899.41;;;14.68;52.35
50368;BME280;36281;34.132;-118.018;2022-10-31T08:27:54;99898.81;;;14.66;52.69
50368;BME280;36281;34.132;-118.018;2022-10-31T08:30:23;99893.88;;;14.58;52.96
50368;BME280;36281;34.132;-118.018;2022-10-31T08:33:01;99900.13;;;14.52;52.98
50368;BME280;36281;34.132;-118.018;2022-10-31T08:35:29;99898.88;;;14.54;52.84
50368;BME280;36281;34.132;-118.018;2022-10-31T08:38:00;99900.13;;;14.52;53.12
50368;BME280;36281;34.132;-118.018;2022-10-31T08:40:29;99900.38;;;14.50;52.75
50368;BME280;36281;34.132;-118.018;2022-10-31T08:42:58;99900.13;;;14.52;52.91
50368;BME280;36281;34.132;-118.018;2022-10-31T08:45:27;99900.38;;;14.50;52.26
50368;BME280;36281;34.132;-118.018;2022-10-31T08:47:59;99897.59;;;14.45;52.56
50368;BME280;36281;34.132;-118.018;2022-10-31T08:50:28;99896.78;;;14.44;52.40
50368;BME280;36281;34.132;-118.018;2022-10-31T08:53:02;99899.09;;;14.41;52.32
50368;BME280;36281;34.132;-118.018;2022-10-31T08:55:32;99896.13;;;14.37;52.51
50368;BME280;36281;34.132;-118.018;2022-10-31T08:58:01;99893.66;;;14.36;52.69
50368;BME280;36281;34.132;-118.018;2022-10-31T09:00:30;99882.25;;;14.23;53.11
50368;BME280;36281;34.132;-118.018;2022-10-31T09:02:58;99895.91;;;14.27;53.48
50368;BME280;36281;34.132;-118.018;2022-10-31T09:05:27;99895.56;;;14.23;53.45
50368;BME280;36281;34.132;-118.018;2022-10-31T09:07:55;99893.84;;;14.17;53.49
50368;BME280;36281;34.132;-118.018;2022-10-31T09:10:26;99891.53;;;14.09;54.06
50368;BME280;36281;34.132;-118.018;2022-10-31T09:12:55;99892.78;;;14.07;53.94
50368;BME280;36281;34.132;-118.018;2022-10-31T09:15:24;99886.56;;;14.01;54.26
50368;BME280;36281;34.132;-118.018;2022-10-31T09:17:53;99879.63;;;14.00;54.26
50368;BME280;36281;34.132;-118.018;2022-10-31T09:20:21;99878.25;;;13.98;54.37
50368;BME280;36281;34.132;-118.018;2022-10-31T09:22:55;99881.47;;;14.00;54.34
50368;BME280;36281;34.132;-118.018;2022-10-31T09:25:23;99886.78;;;14.00;53.47
50368;BME280;36281;34.132;-118.018;2022-10-31T09:27:54;99881.94;;;13.96;53.32
50368;BME280;36281;34.132;-118.018;2022-10-31T09:30:23;99890.59;;;13.92;53.45
50368;BME280;36281;34.132;-118.018;2022-10-31T09:32:54;99882.63;;;13.92;53.54
50368;BME280;36281;34.132;-118.018;2022-10-31T09:35:22;99884.16;;;13.88;53.91
50368;BME280;36281;34.132;-118.018;2022-10-31T09:37:54;99888.53;;;13.82;54.39
50368;BME280;36281;34.132;-118.018;2022-10-31T09:40:24;99895.38;;;13.78;54.57
50368;BME280;36281;34.132;-118.018;2022-10-31T09:42:58;99901.72;;;13.77;54.52
50368;BME280;36281;34.132;-118.018;2022-10-31T09:45:29;99901.97;;;13.76;54.86
50368;BME280;36281;34.132;-118.018;2022-10-31T09:50:45;99898.75;;;13.74;54.76
50368;BME280;36281;34.132;-118.018;2022-10-31T09:53:17;99894.78;;;13.76;54.48
50368;BME280;36281;34.132;-118.018;2022-10-31T09:55:49;99906.38;;;13.70;54.39
50368;BME280;36281;34.132;-118.018;2022-10-31T09:58:20;99903.03;;;13.63;55.04
50368;BME280;36281;34.132;-118.018;2022-10-31T10:00:50;99894.81;;;13.53;55.42
50368;BME280;36281;34.132;-118.018;2022-10-31T10:03:21;99898.34;;;13.47;55.45
50368;BME280;36281;34.132;-118.018;2022-10-31T10:05:56;99898.84;;;13.43;55.57
50368;BME280;36281;34.132;-118.018;2022-10-31T10:08:25;99896.16;;;13.43;55.38
50368;BME280;36281;34.132;-118.018;2022-10-31T10:10:55;99889.00;;;13.44;55.59
50368;BME280;36281;34.132;-118.018;2022-10-31T10:13:31;99880.53;;;13.47;55.38
50368;BME280;36281;34.132;-118.018;2022-10-31T10:16:08;99876.25;;;13.46;54.06
50368;BME280;36281;34.132;-118.018;2022-10-31T10:18:43;99877.56;;;13.43;53.78
50368;BME280;36281;34.132;-118.018;2022-10-31T10:21:19;99870.13;;;13.45;54.42
50368;BME280;36281;34.132;-118.018;2022-10-31T10:23:55;99866.91;;;13.43;54.45
50368;BME280;36281;34.132;-118.018;2022-10-31T10:26:27;99874.41;;;13.47;53.42
50368;BME280;36281;34.132;-118.018;2022-10-31T10:29:01;99868.53;;;13.44;53.62
50368;BME280;36281;34.132;-118.018;2022-10-31T10:31:33;99869.56;;;13.43;53.41
50368;BME280;36281;34.132;-118.018;2022-10-31T10:34:06;99863.66;;;13.41;53.37
50368;BME280;36281;34.132;-118.018;2022-10-31T10:36:39;99857.16;;;13.37;53.29
50368;BME280;36281;34.132;-118.018;2022-10-31T10:39:11;99859.25;;;13.35;53.37
50368;BME280;36281;34.132;-118.018;2022-10-31T10:41:43;99857.28;;;13.31;53.58
50368;BME280;36281;34.132;-118.018;2022-10-31T10:44:14;99867.69;;;13.32;53.49
50368;BME280;36281;34.132;-118.018;2022-10-31T10:46:43;99869.66;;;13.25;52.70
50368;BME280;36281;34.132;-118.018;2022-10-31T10:49:35;99873.41;;;13.17;53.23
50368;BME280;36281;34.132;-118.018;2022-10-31T10:52:07;99867.28;;;13.17;53.38
50368;BME280;36281;34.132;-118.018;2022-10-31T10:55:01;99868.09;;;13.17;53.74
50368;BME280;36281;34.132;-118.018;2022-10-31T10:57:34;99867.63;;;13.09;54.21
50368;BME280;36281;34.132;-118.018;2022-10-31T11:00:15;99867.03;;;13.07;54.42
50368;BME280;36281;34.132;-118.018;2022-10-31T11:02:44;99869.56;;;13.02;54.64
50368;BME280;36281;34.132;-118.018;2022-10-31T11:05:22;99856.25;;;13.02;54.27
50368;BME280;36281;34.132;-118.018;2022-10-31T11:07:53;99855.09;;;12.98;54.22
50368;BME280;36281;34.132;-118.018;2022-10-31T11:10:21;99853.47;;;12.97;54.15
50368;BME280;36281;34.132;-118.018;2022-10-31T11:13:00;99850.38;;;13.00;53.90
50368;BME280;36281;34.132;-118.018;2022-10-31T11:15:31;99856.38;;;12.95;53.96
50368;BME280;36281;34.132;-118.018;2022-10-31T11:18:02;99854.03;;;12.87;54.43
50368;BME280;36281;34.132;-118.018;2022-10-31T11:20:31;99853.00;;;12.88;54.27
50368;BME280;36281;34.132;-118.018;2022-10-31T11:23:03;99848.50;;;12.88;53.76
50368;BME280;36281;34.132;-118.018;2022-10-31T11:25:32;99856.47;;;12.88;53.37
50368;BME280;36281;34.132;-118.018;2022-10-31T11:28:00;99849.75;;;12.86;53.31
50368;BME280;36281;34.132;-118.018;2022-10-31T11:30:31;99844.53;;;12.79;52.67
50368;BME280;36281;34.132;-118.018;2022-10-31T11:33:03;99847.06;;;12.74;53.54
50368;BME280;36281;34.132;-118.018;2022-10-31T11:35:31;99847.06;;;12.74;53.52
50368;BME280;36281;34.132;-118.018;2022-10-31T11:38:00;99843.81;;;12.72;53.88
50368;BME280;36281;34.132;-118.018;2022-10-31T11:40:32;99841.84;;;12.67;53.27
50368;BME280;36281;34.132;-118.018;2022-10-31T11:43:00;99842.97;;;12.60;53.35
50368;BME280;36281;34.132;-118.018;2022-10-31T11:45:29;99843.28;;;12.52;53.61
50368;BME280;36281;34.132;-118.018;2022-10-31T11:48:00;99840.47;;;12.47;53.55
50368;BME280;36281;34.132;-118.018;2022-10-31T11:50:32;99838.06;;;12.45;53.94
50368;BME280;36281;34.132;-118.018;2022-10-31T11:53:02;99840.47;;;12.47;54.15
50368;BME280;36281;34.132;-118.018;2022-10-31T11:55:31;99832.97;;;12.44;54.17
50368;BME280;36281;34.132;-118.018;2022-10-31T11:58:00;99839.16;;;12.37;54.55
50368;BME280;36281;34.132;-118.018;2022-10-31T12:00:29;99839.53;;;12.41;54.88
50368;BME280;36281;34.132;-118.018;2022-10-31T12:03:18;99836.50;;;12.37;54.01
50368;BME280;36281;34.132;-118.018;2022-10-31T12:05:53;99836.84;;;12.29;54.00
50368;BME280;36281;34.132;-118.018;2022-10-31T12:08:29;99837.28;;;12.26;54.34
50368;BME280;36281;34.132;-118.018;2022-10-31T12:10:58;99839.94;;;12.26;54.01
50368;BME280;36281;34.132;-118.018;2022-10-31T12:13:32;99832.19;;;12.25;54.54
50368;BME280;36281;34.132;-118.018;2022-10-31T12:16:04;99838.31;;;12.25;54.84
50368;BME280;36281;34.132;-118.018;2022-10-31T12:18:49;99831.38;;;12.24;54.94
50368;BME280;36281;34.132;-118.018;2022-10-31T12:21:24;99834.09;;;12.18;55.14
50368;BME280;36281;34.132;-118.018;2022-10-31T12:23:59;99827.63;;;12.13;54.81
50368;BME280;36281;34.132;-118.018;2022-10-31T12:26:32;99824.16;;;12.13;55.10
50368;BME280;36281;34.132;-118.018;2022-10-31T12:29:09;99829.31;;;12.08;55.18
50368;BME280;36281;34.132;-118.018;2022-10-31T12:31:46;99824.97;;;12.13;55.26
50368;BME280;36281;34.132;-118.018;2022-10-31T12:34:30;99830.28;;;12.13;54.98
50368;BME280;36281;34.132;-118.018;2022-10-31T12:37:02;99834.03;;;12.06;53.87
50368;BME280;36281;34.132;-118.018;2022-10-31T12:39:34;99833.09;;;12.00;54.45
50368;BME280;36281;34.132;-118.018;2022-10-31T12:42:11;99826.97;;;12.00;54.53
50368;BME280;36281;34.132;-118.018;2022-10-31T12:44:52;99833.31;;;11.99;54.71
50368;BME280;36281;34.132;-118.018;2022-10-31T12:50:15;99827.34;;;11.85;55.04
50368;BME280;36281;34.132;-118.018;2022-10-31T12:52:48;99833.28;;;11.80;55.71
50368;BME280;36281;34.132;-118.018;2022-10-31T12:55:26;99827.38;;;11.78;55.25
50368;BME280;36281;34.132;-118.018;2022-10-31T12:58:00;99829.44;;;11.76;55.85
50368;BME280;36281;34.132;-118.018;2022-10-31T13:00:30;99836.34;;;11.77;55.37
50368;BME280;36281;34.132;-118.018;2022-10-31T13:03:05;99826.13;;;11.81;55.31
50368;BME280;36281;34.132;-118.018;2022-10-31T13:05:40;99837.16;;;11.84;55.36
50368;BME280;36281;34.132;-118.018;2022-10-31T13:08:09;99834.31;;;11.79;54.97
50368;BME280;36281;34.132;-118.018;2022-10-31T13:10:40;99835.63;;;11.70;55.03
50368;BME280;36281;34.132;-118.018;2022-10-31T13:13:12;99830.16;;;11.65;55.41
50368;BME280;36281;34.132;-118.018;2022-10-31T13:15:45;99834.22;;;11.68;55.32
50368;BME280;36281;34.132;-118.018;2022-10-31T13:18:21;99825.69;;;11.65;55.72
50368;BME280;36281;34.132;-118.018;2022-10-31T13:20:52;99836.06;;;11.67;55.90
50368;BME280;36281;34.132;-118.018;2022-10-31T13:23:23;99831.25;;;11.57;56.35
50368;BME280;36281;34.132;-118.018;2022-10-31T13:26:15;99832.13;;;11.51;56.28
50368;BME280;36281;34.132;-118.018;2022-10-31T13:28:46;99823.22;;;11.46;56.70
50368;BME280;36281;34.132;-118.018;2022-10-31T13:31:16;99818.50;;;11.48;57.04
50368;BME280;36281;34.132;-118.018;2022-10-31T13:33:44;99818.34;;;11.43;57.35
50368;BME280;36281;34.132;-118.018;2022-10-31T13:36:19;99829.00;;;11.36;57.45
50368;BME280;36281;34.132;-118.018;2022-10-31T13:38:50;99827.75;;;11.38;57.25
50368;BME280;36281;34.132;-118.018;2022-10-31T13:41:22;99830.78;;;11.42;56.92
50368;BME280;36281;34.132;-118.018;2022-10-31T13:43:59;99833.00;;;11.45;55.74
50368;BME280;36281;34.132;-118.018;2022-10-31T13:46:35;99836.69;;;11.44;55.90
50368;BME280;36281;34.132;-118.018;2022-10-31T13:49:04;99837.94;;;11.42;55.81
50368;BME280;36281;34.132;-118.018;2022-10-31T13:51:51;99831.25;;;11.39;55.88
50368;BME280;36281;34.132;-118.018;2022-10-31T13:54:22;99839.53;;;11.43;55.88
50368;BME280;36281;34.132;-118.018;2022-10-31T13:56:51;99835.06;;;11.43;55.88
50368;BME280;36281;34.132;-118.018;2022-10-31T13:59:21;99846.03;;;11.47;55.82
50368;BME280;36281;34.132;-118.018;2022-10-31T14:01:50;99833.66;;;11.41;56.17
50368;BME280;36281;34.132;-118.018;2022-10-31T14:04:20;99834.25;;;11.43;56.09
50368;BME280;36281;34.132;-118.018;2022-10-31T14:06:55;99834.69;;;11.39;55.96
50368;BME280;36281;34.132;-118.018;2022-10-31T14:09:29;99846.31;;;11.38;56.60
50368;BME280;36281;34.132;-118.018;2022-10-31T14:11:59;99836.56;;;11.32;56.51
50368;BME280;36281;34.132;-118.018;2022-10-31T14:14:30;99844.53;;;11.32;57.12
50368;BME280;36281;34.132;-118.018;2022-10-31T14:17:00;99843.50;;;11.33;57.35
50368;BME280;36281;34.132;-118.018;2022-10-31T14:19:29;99848.97;;;11.38;57.51
50368;BME280;36281;34.132;-118.018;2022-10-31T14:21:58;99849.19;;;11.37;57.58
50368;BME280;36281;34.132;-118.018;2022-10-31T14:24:34;99854.06;;;11.40;57.16
50368;BME280;36281;34.132;-118.018;2022-10-31T14:27:03;99852.97;;;11.48;56.44
50368;BME280;36281;34.132;-118.018;2022-10-31T14:29:32;99847.66;;;11.48;56.27
50368;BME280;36281;34.132;-118.018;2022-10-31T14:32:05;99847.81;;;11.53;56.17
50368;BME280;36281;34.132;-118.018;2022-10-31T14:34:40;99846.75;;;11.60;56.27
50368;BME280;36281;34.132;-118.018;2022-10-31T14:37:20;99849.13;;;11.69;55.81
50368;BME280;36281;34.132;-118.018;2022-10-31T14:40:02;99858.31;;;11.66;56.37
50368;BME280;36281;34.132;-118.018;2022-10-31T14:42:44;99855.25;;;11.69;56.08
50368;BME280;36281;34.132;-118.018;2022-10-31T14:45:28;99858.84;;;11.75;56.02
50368;BME280;36281;34.132;-118.018;2022-10-31T14:48:06;99856.34;;;11.80;55.96
50368;BME280;36281;34.132;-118.018;2022-10-31T14:50:42;99863.69;;;11.78;55.61
50368;BME280;36281;34.132;-118.018;2022-10-31T14:53:14;99857.16;;;11.80;54.98
50368;BME280;36281;34.132;-118.018;2022-10-31T14:55:47;99859.19;;;11.85;55.33
50368;BME280;36281;34.132;-118.018;2022-10-31T14:58:17;99865.22;;;11.92;55.94
50368;BME280;36281;34.132;-118.018;2022-10-31T15:00:48;99869.44;;;12.00;55.56
50368;BME280;36281;34.132;-118.018;2022-10-31T15:03:18;99871.06;;;12.01;55.84
50368;BME280;36281;34.132;-118.018;2022-10-31T15:05:49;99866.94;;;12.05;56.04
50368;BME280;36281;34.132;-118.018;2022-10-31T15:11:13;99870.75;;;12.27;56.81
50368;BME280;36281;34.132;-118.018;2022-10-31T15:13:42;99871.84;;;12.38;57.03
50368;BME280;36281;34.132;-118.018;2022-10-31T15:16:12;99872.59;;;12.45;56.90
50368;BME280;36281;34.132;-118.018;2022-10-31T15:18:54;99869.63;;;12.53;57.28
50368;BME280;36281;34.132;-118.018;2022-10-31T15:21:26;99865.97;;;12.66;57.57
50368;BME280;36281;34.132;-118.018;2022-10-31T15:24:05;99866.84;;;12.78;58.43
50368;BME280;36281;34.132;-118.018;2022-10-31T15:26:48;99875.66;;;12.90;58.40
50368;BME280;36281;34.132;-118.018;2022-10-31T15:29:36;99867.13;;;13.00;58.18
50368;BME280;36281;34.132;-118.018;2022-10-31T15:32:18;99865.22;;;13.19;57.75
50368;BME280;36281;34.132;-118.018;2022-10-31T15:34:50;99870.72;;;13.48;57.78
50368;BME280;36281;34.132;-118.018;2022-10-31T15:37:30;99873.81;;;14.15;58.24
50368;BME280;36281;34.132;-118.018;2022-10-31T15:40:14;99883.72;;;15.00;57.75
50368;BME280;36281;34.132;-118.018;2022-10-31T15:45:34;99870.63;;;16.92;52.87
50368;BME280;36281;34.132;-118.018;2022-10-31T15:48:14;99867.84;;;17.78;50.38
50368;BME280;36281;34.132;-118.018;2022-10-31T15:50:53;99874.59;;;18.54;47.04
50368;BME280;36281;34.132;-118.018;2022-10-31T15:53:25;99871.00;;;19.21;44.60
50368;BME280;36281;34.132;-118.018;2022-10-31T15:55:55;99874.47;;;19.78;42.90
50368;BME280;36281;34.132;-118.018;2022-10-31T15:58:24;99872.66;;;20.33;41.95
50368;BME280;36281;34.132;-118.018;2022-10-31T16:01:00;99873.69;;;20.97;41.18
50368;BME280;36281;34.132;-118.018;2022-10-31T16:03:29;99868.66;;;21.58;39.99
50368;BME280;36281;34.132;-118.018;2022-10-31T16:05:59;99871.59;;;22.10;37.96
50368;BME280;36281;34.132;-118.018;2022-10-31T16:08:34;99873.09;;;22.64;35.82
50368;BME280;36281;34.132;-118.018;2022-10-31T16:11:14;99874.97;;;23.20;34.52
50368;BME280;36281;34.132;-118.018;2022-10-31T16:13:51;99870.34;;;23.86;33.29
50368;BME280;36281;34.132;-118.018;2022-10-31T16:16:22;99877.06;;;24.43;32.28
50368;BME280;36281;34.132;-118.018;2022-10-31T16:19:11;99880.59;;;25.02;29.76
50368;BME280;36281;34.132;-118.018;2022-10-31T16:21:42;99876.38;;;25.64;28.99
50368;BME280;36281;34.132;-118.018;2022-10-31T16:24:13;99867.19;;;26.13;28.94
50368;BME280;36281;34.132;-118.018;2022-10-31T16:26:46;99878.81;;;26.53;29.03
50368;BME280;36281;34.132;-118.018;2022-10-31T16:29:23;99876.91;;;27.06;26.79
50368;BME280;36281;34.132;-118.018;2022-10-31T16:31:54;99875.78;;;27.33;26.75
50368;BME280;36281;34.132;-118.018;2022-10-31T16:34:22;99876.81;;;27.75;25.37
50368;BME280;36281;34.132;-118.018;2022-10-31T16:36:52;99873.56;;;28.20;24.01
50368;BME280;36281;34.132;-118.018;2022-10-31T16:39:21;99880.56;;;28.59;23.00
50368;BME280;36281;34.132;-118.018;2022-10-31T16:41:50;99870.47;;;28.93;22.25
50368;BME280;36281;34.132;-118.018;2022-10-31T16:44:19;99872.66;;;29.21;21.75
50368;BME280;36281;34.132;-118.018;2022-10-31T16:46:47;99877.84;;;29.34;21.55
50368;BME280;36281;34.132;-118.018;2022-10-31T16:49:17;99880.13;;;29.45;21.22
50368;BME280;36281;34.132;-118.018;2022-10-31T16:51:46;99874.19;;;29.43;21.22
50368;BME280;36281;34.132;-118.018;2022-10-31T16:54:15;99867.09;;;29.17;20.59
50368;BME280;36281;34.132;-118.018;2022-10-31T16:56:43;99865.56;;;28.87;21.12
50368;BME280;36281;34.132;-118.018;2022-10-31T16:59:12;99864.78;;;28.65;20.82
50368;BME280;36281;34.132;-118.018;2022-10-31T17:01:42;99863.50;;;28.42;21.33
50368;BME280;36281;34.132;-118.018;2022-10-31T17:04:13;99869.72;;;28.51;21.10
50368;BME280;36281;34.132;-118.018;2022-10-31T17:06:43;99867.97;;;28.67;21.30
50368;BME280;36281;34.132;-118.018;2022-10-31T17:09:12;99866.56;;;28.82;20.81
50368;BME280;36281;34.132;-118.018;2022-10-31T17:11:41;99866.03;;;28.89;20.48
50368;BME280;36281;34.132;-118.018;2022-10-31T17:14:15;99863.59;;;28.96;20.86
50368;BME280;36281;34.132;-118.018;2022-10-31T17:16:44;99851.94;;;29.07;21.12
50368;BME280;36281;34.132;-118.018;2022-10-31T17:19:12;99854.38;;;29.21;20.31
50368;BME280;36281;34.132;-118.018;2022-10-31T17:21:40;99845.31;;;29.42;21.21
50368;BME280;36281;34.132;-118.018;2022-10-31T17:24:11;99843.31;;;29.51;20.65
50368;BME280;36281;34.132;-118.018;2022-10-31T17:26:40;99846.88;;;29.76;20.18
50368;BME280;36281;34.132;-118.018;2022-10-31T17:29:08;99843.91;;;29.93;22.02
50368;BME280;36281;34.132;-118.018;2022-10-31T17:31:36;99836.88;;;30.04;20.21
50368;BME280;36281;34.132;-118.018;2022-10-31T17:34:05;99840.53;;;30.21;20.36
50368;BME280;36281;34.132;-118.018;2022-10-31T17:36:35;99832.44;;;30.24;18.53